sensor_id;sensor_type;location;lat;lon;timestamp;pressure;altitude;pressure_sealevel;temperature;humidity
50364;BME280;36272;59.400;17.982;2023-08-12T00:04:19;101673.81;;;13.53;80.16
50364;BME280;36272;59.400;17.982;2023-08-12T00:09:21;101677.78;;;13.50;80.65
50364;BME280;36272;59.400;17.982;2023-08-12T00:14:23;101669.09;;;13.48;80.87
50364;BME280;36272;59.400;17.982;2023-08-12T00:19:24;101682.75;;;13.47;80.91
50364;BME280;36272;59.400;17.982;2023-08-12T00:24:26;101681.56;;;13.43;81.47
50364;BME280;36272;59.400;17.982;2023-08-12T00:29:27;101687.34;;;13.39;81.84
50364;BME280;36272;59.400;17.982;2023-08-12T00:34:29;101686.72;;;13.37;81.94
50364;BME280;36272;59.400;17.982;2023-08-12T00:39:31;101678.88;;;13.36;82.34
50364;BME280;36272;59.400;17.982;2023-08-12T00:44:33;101701.63;;;13.33;82.54
50364;BME280;36272;59.400;17.982;2023-08-12T00:49:34;101687.38;;;13.33;82.70
50364;BME280;36272;59.400;17.982;2023-08-12T00:54:38;101672.50;;;13.30;83.03
50364;BME280;36272;59.400;17.982;2023-08-12T00:59:41;101667.34;;;13.29;83.14
50364;BME280;36272;59.400;17.982;2023-08-12T01:04:45;101684.50;;;13.28;82.79
50364;BME280;36272;59.400;17.982;2023-08-12T01:09:47;101671.72;;;13.23;83.07
50364;BME280;36272;59.400;17.982;2023-08-12T01:15:13;101650.66;;;13.20;83.35
50364;BME280;36272;59.400;17.982;2023-08-12T01:20:19;101652.97;;;13.16;83.39
50364;BME280;36272;59.400;17.982;2023-08-12T01:25:25;101664.34;;;13.12;83.35
50364;BME280;36272;59.400;17.982;2023-08-12T01:30:27;101663.97;;;13.08;83.46
50364;BME280;36272;59.400;17.982;2023-08-12T01:35:47;101645.22;;;13.01;83.83
50364;BME280;36272;59.400;17.982;2023-08-12T01:40:53;101645.03;;;12.96;83.34
50364;BME280;36272;59.400;17.982;2023-08-12T01:45:55;101650.84;;;12.93;83.81
50364;BME280;36272;59.400;17.982;2023-08-12T01:50:57;101671.91;;;12.89;83.58
50364;BME280;36272;59.400;17.982;2023-08-12T01:55:59;101673.19;;;12.87;83.49
50364;BME280;36272;59.400;17.982;2023-08-12T02:01:00;101686.00;;;12.85;84.00
50364;BME280;36272;59.400;17.982;2023-08-12T02:06:02;101685.56;;;12.81;84.21
50364;BME280;36272;59.400;17.982;2023-08-12T02:11:03;101692.44;;;12.77;84.08
50364;BME280;36272;59.400;17.982;2023-08-12T02:16:05;101686.03;;;12.71;84.14
50364;BME280;36272;59.400;17.982;2023-08-12T02:21:07;101694.50;;;12.68;84.42
50364;BME280;36272;59.400;17.982;2023-08-12T02:26:08;101680.72;;;12.64;84.35
50364;BME280;36272;59.400;17.982;2023-08-12T02:31:10;101680.91;;;12.63;84.41
50364;BME280;36272;59.400;17.982;2023-08-12T02:36:11;101663.38;;;12.60;84.35
50364;BME280;36272;59.400;17.982;2023-08-12T02:41:13;101663.00;;;12.57;84.35
50364;BME280;36272;59.400;17.982;2023-08-12T02:46:15;101658.84;;;12.54;84.64
50364;BME280;36272;59.400;17.982;2023-08-12T02:51:16;101652.25;;;12.50;84.35
50364;BME280;36272;59.400;17.982;2023-08-12T02:56:18;101669.63;;;12.47;84.46
50364;BME280;36272;59.400;17.982;2023-08-12T03:01:20;101655.78;;;12.44;84.84
50364;BME280;36272;59.400;17.982;2023-08-12T03:06:22;101671.69;;;12.45;84.55
50364;BME280;36272;59.400;17.982;2023-08-12T03:11:24;101668.41;;;12.43;84.52
50364;BME280;36272;59.400;17.982;2023-08-12T03:16:25;101663.03;;;12.43;84.60
50364;BME280;36272;59.400;17.982;2023-08-12T03:21:27;101648.56;;;12.44;84.67
50364;BME280;36272;59.400;17.982;2023-08-12T03:26:29;101649.38;;;12.45;84.79
50364;BME280;36272;59.400;17.982;2023-08-12T03:31:30;101649.38;;;12.45;84.67
50364;BME280;36272;59.400;17.982;2023-08-12T03:36:32;101651.88;;;12.46;84.69
50364;BME280;36272;59.400;17.982;2023-08-12T03:41:34;101649.56;;;12.50;84.75
50364;BME280;36272;59.400;17.982;2023-08-12T03:46:35;101655.13;;;12.55;84.77
50364;BME280;36272;59.400;17.982;2023-08-12T03:51:37;101641.69;;;12.62;85.19
50364;BME280;36272;59.400;17.982;2023-08-12T03:56:38;101662.91;;;12.70;85.36
50364;BME280;36272;59.400;17.982;2023-08-12T04:01:40;101657.31;;;12.78;85.42
50364;BME280;36272;59.400;17.982;2023-08-12T04:06:42;101639.50;;;12.84;85.31
50364;BME280;36272;59.400;17.982;2023-08-12T04:11:44;101621.75;;;12.90;85.96
50364;BME280;36272;59.400;17.982;2023-08-12T04:16:46;101639.69;;;12.96;85.69
50364;BME280;36272;59.400;17.982;2023-08-12T04:21:48;101633.22;;;13.04;85.79
50364;BME280;36272;59.400;17.982;2023-08-12T04:26:49;101637.06;;;13.15;86.08
50364;BME280;36272;59.400;17.982;2023-08-12T04:31:51;101638.56;;;13.36;86.08
50364;BME280;36272;59.400;17.982;2023-08-12T04:36:54;101621.84;;;13.66;86.31
50364;BME280;36272;59.400;17.982;2023-08-12T04:41:55;101618.97;;;14.05;86.36
50364;BME280;36272;59.400;17.982;2023-08-12T04:46:57;101626.34;;;14.47;86.02
50364;BME280;36272;59.400;17.982;2023-08-12T04:51:58;101623.63;;;14.84;85.18
50364;BME280;36272;59.400;17.982;2023-08-12T04:57:01;101606.38;;;15.15;84.48
50364;BME280;36272;59.400;17.982;2023-08-12T05:02:03;101611.59;;;15.53;83.61
50364;BME280;36272;59.400;17.982;2023-08-12T05:07:04;101607.88;;;15.89;82.99
50364;BME280;36272;59.400;17.982;2023-08-12T05:12:06;101611.81;;;16.11;82.31
50364;BME280;36272;59.400;17.982;2023-08-12T05:17:08;101629.38;;;16.25;81.74
50364;BME280;36272;59.400;17.982;2023-08-12T05:22:11;101627.94;;;16.34;81.13
50364;BME280;36272;59.400;17.982;2023-08-12T05:27:13;101625.69;;;16.43;81.06
50364;BME280;36272;59.400;17.982;2023-08-12T05:32:14;101618.38;;;16.56;80.60
50364;BME280;36272;59.400;17.982;2023-08-12T05:37:16;101623.44;;;16.81;79.96
50364;BME280;36272;59.400;17.982;2023-08-12T05:42:17;101627.19;;;17.09;78.96
50364;BME280;36272;59.400;17.982;2023-08-12T05:47:19;101618.19;;;17.20;78.26
50364;BME280;36272;59.400;17.982;2023-08-12T05:52:21;101614.03;;;17.30;78.18
50364;BME280;36272;59.400;17.982;2023-08-12T05:57:22;101612.97;;;17.48;77.81
50364;BME280;36272;59.400;17.982;2023-08-12T06:02:25;101591.38;;;17.70;77.23
50364;BME280;36272;59.400;17.982;2023-08-12T06:07:27;101599.53;;;17.92;76.38
50364;BME280;36272;59.400;17.982;2023-08-12T06:12:29;101598.06;;;18.24;75.62
50364;BME280;36272;59.400;17.982;2023-08-12T06:17:31;101590.38;;;18.65;74.25
50364;BME280;36272;59.400;17.982;2023-08-12T06:22:32;101598.84;;;18.96;73.12
50364;BME280;36272;59.400;17.982;2023-08-12T06:27:34;101605.97;;;19.08;72.16
50364;BME280;36272;59.400;17.982;2023-08-12T06:32:36;101604.97;;;19.14;72.02
50364;BME280;36272;59.400;17.982;2023-08-12T06:37:37;101608.25;;;19.21;71.65
50364;BME280;36272;59.400;17.982;2023-08-12T06:42:39;101608.50;;;19.20;71.84
50364;BME280;36272;59.400;17.982;2023-08-12T06:47:41;101600.09;;;19.21;71.33
50364;BME280;36272;59.400;17.982;2023-08-12T06:52:42;101598.50;;;19.25;71.45
50364;BME280;36272;59.400;17.982;2023-08-12T06:57:44;101592.13;;;19.42;70.65
50364;BME280;36272;59.400;17.982;2023-08-12T07:02:46;101597.41;;;19.59;70.16
50364;BME280;36272;59.400;17.982;2023-08-12T07:07:48;101582.56;;;19.77;69.78
50364;BME280;36272;59.400;17.982;2023-08-12T07:12:49;101588.13;;;19.93;69.64
50364;BME280;36272;59.400;17.982;2023-08-12T07:17:51;101584.91;;;20.01;68.96
50364;BME280;36272;59.400;17.982;2023-08-12T07:22:53;101590.38;;;20.06;68.47
50364;BME280;36272;59.400;17.982;2023-08-12T07:27:54;101605.03;;;20.05;68.71
50364;BME280;36272;59.400;17.982;2023-08-12T07:32:56;101604.09;;;19.89;68.72
50364;BME280;36272;59.400;17.982;2023-08-12T07:37:57;101613.78;;;19.74;68.76
50364;BME280;36272;59.400;17.982;2023-08-12T07:42:59;101610.31;;;19.84;68.50
50364;BME280;36272;59.400;17.982;2023-08-12T07:48:00;101611.53;;;20.04;68.35
50364;BME280;36272;59.400;17.982;2023-08-12T07:53:02;101614.13;;;20.47;67.43
50364;BME280;36272;59.400;17.982;2023-08-12T07:58:04;101624.84;;;20.95;66.63
50364;BME280;36272;59.400;17.982;2023-08-12T08:03:05;101604.72;;;21.12;65.77
50364;BME280;36272;59.400;17.982;2023-08-12T08:08:07;101599.53;;;21.25;65.47
50364;BME280;36272;59.400;17.982;2023-08-12T08:13:09;101608.53;;;21.36;65.01
50364;BME280;36272;59.400;17.982;2023-08-12T08:18:10;101599.78;;;21.55;64.43
50364;BME280;36272;59.400;17.982;2023-08-12T08:23:12;101613.41;;;21.65;63.58
50364;BME280;36272;59.400;17.982;2023-08-12T08:28:14;101591.09;;;21.63;63.42
50364;BME280;36272;59.400;17.982;2023-08-12T08:33:15;101601.97;;;21.63;63.45
50364;BME280;36272;59.400;17.982;2023-08-12T08:38:17;101597.34;;;21.53;63.96
50364;BME280;36272;59.400;17.982;2023-08-12T08:43:21;101582.38;;;21.51;63.83
50364;BME280;36272;59.400;17.982;2023-08-12T08:48:25;101592.16;;;21.73;63.81
50364;BME280;36272;59.400;17.982;2023-08-12T08:53:27;101584.69;;;22.04;62.97
50364;BME280;36272;59.400;17.982;2023-08-12T08:58:28;101601.13;;;22.39;62.22
50364;BME280;36272;59.400;17.982;2023-08-12T09:03:30;101600.44;;;22.73;61.67
50364;BME280;36272;59.400;17.982;2023-08-12T09:08:33;101588.41;;;23.09;61.18
50364;BME280;36272;59.400;17.982;2023-08-12T09:13:35;101598.44;;;23.48;60.66
50364;BME280;36272;59.400;17.982;2023-08-12T09:18:37;101601.44;;;23.76;60.12
50364;BME280;36272;59.400;17.982;2023-08-12T09:23:41;101591.31;;;23.76;58.91
50364;BME280;36272;59.400;17.982;2023-08-12T09:28:43;101591.56;;;23.56;59.51
50364;BME280;36272;59.400;17.982;2023-08-12T09:33:50;101585.84;;;23.23;60.16
50364;BME280;36272;59.400;17.982;2023-08-12T09:38:52;101585.06;;;23.17;60.43
50364;BME280;36272;59.400;17.982;2023-08-12T09:43:55;101573.13;;;23.42;60.08
50364;BME280;36272;59.400;17.982;2023-08-12T09:48:58;101578.47;;;23.53;60.27
50364;BME280;36272;59.400;17.982;2023-08-12T09:54:00;101598.44;;;23.72;60.56
50364;BME280;36272;59.400;17.982;2023-08-12T09:59:05;101571.56;;;23.85;59.95
50364;BME280;36272;59.400;17.982;2023-08-12T10:04:08;101564.69;;;24.12;60.22
50364;BME280;36272;59.400;17.982;2023-08-12T10:09:12;101577.16;;;24.18;60.55
50364;BME280;36272;59.400;17.982;2023-08-12T10:14:16;101587.00;;;23.95;60.35
50364;BME280;36272;59.400;17.982;2023-08-12T10:19:20;101569.03;;;23.88;60.16
50364;BME280;36272;59.400;17.982;2023-08-12T10:24:23;101560.31;;;24.11;60.05
50364;BME280;36272;59.400;17.982;2023-08-12T10:29:25;101572.66;;;24.65;59.37
50364;BME280;36272;59.400;17.982;2023-08-12T10:34:27;101574.75;;;25.07;58.91
50364;BME280;36272;59.400;17.982;2023-08-12T10:39:31;101541.91;;;25.07;58.79
50364;BME280;36272;59.400;17.982;2023-08-12T10:44:40;101554.72;;;25.12;59.22
50364;BME280;36272;59.400;17.982;2023-08-12T10:49:49;101553.00;;;25.30;58.96
50364;BME280;36272;59.400;17.982;2023-08-12T10:54:52;101546.16;;;25.60;58.59
50364;BME280;36272;59.400;17.982;2023-08-12T10:59:54;101553.66;;;25.68;58.10
50364;BME280;36272;59.400;17.982;2023-08-12T11:05:08;101548.66;;;25.84;57.94
50364;BME280;36272;59.400;17.982;2023-08-12T11:10:15;101556.41;;;25.82;57.74
50364;BME280;36272;59.400;17.982;2023-08-12T11:15:19;101546.94;;;25.75;58.27
50364;BME280;36272;59.400;17.982;2023-08-12T11:20:23;101556.09;;;26.35;57.69
50364;BME280;36272;59.400;17.982;2023-08-12T11:25:25;101537.78;;;27.53;56.11
50364;BME280;36272;59.400;17.982;2023-08-12T11:30:27;101541.13;;;30.37;51.40
50364;BME280;36272;59.400;17.982;2023-08-12T11:35:29;101538.00;;;29.75;51.56
50364;BME280;36272;59.400;17.982;2023-08-12T11:40:31;101536.25;;;28.75;53.43
50364;BME280;36272;59.400;17.982;2023-08-12T11:45:32;101542.72;;;27.91;54.64
50364;BME280;36272;59.400;17.982;2023-08-12T11:50:34;101540.53;;;27.21;55.76
50364;BME280;36272;59.400;17.982;2023-08-12T11:55:36;101517.41;;;26.59;56.94
50364;BME280;36272;59.400;17.982;2023-08-12T12:00:38;101522.47;;;26.43;56.64
50364;BME280;36272;59.400;17.982;2023-08-12T12:05:39;101525.91;;;25.98;57.23
50364;BME280;36272;59.400;17.982;2023-08-12T12:10:41;101534.91;;;25.48;57.69
50364;BME280;36272;59.400;17.982;2023-08-12T12:15:43;101527.69;;;24.91;58.57
50364;BME280;36272;59.400;17.982;2023-08-12T12:25:58;101511.38;;;24.33;59.71
50364;BME280;36272;59.400;17.982;2023-08-12T12:31:00;101533.31;;;24.28;60.03
50364;BME280;36272;59.400;17.982;2023-08-12T12:36:02;101532.34;;;24.19;60.44
50364;BME280;36272;59.400;17.982;2023-08-12T12:41:04;101511.97;;;24.11;60.92
50364;BME280;36272;59.400;17.982;2023-08-12T12:46:05;101520.25;;;24.25;60.61
50364;BME280;36272;59.400;17.982;2023-08-12T12:51:07;101514.97;;;24.10;60.61
50364;BME280;36272;59.400;17.982;2023-08-12T12:56:09;101507.69;;;24.05;61.36
50364;BME280;36272;59.400;17.982;2023-08-12T13:01:10;101511.00;;;24.21;60.98
50364;BME280;36272;59.400;17.982;2023-08-12T13:06:12;101517.38;;;24.16;61.26
50364;BME280;36272;59.400;17.982;2023-08-12T13:11:14;101511.38;;;24.14;61.46
50364;BME280;36272;59.400;17.982;2023-08-12T13:16:15;101514.47;;;24.08;61.69
50364;BME280;36272;59.400;17.982;2023-08-12T13:21:17;101513.72;;;24.02;61.80
50364;BME280;36272;59.400;17.982;2023-08-12T13:26:19;101492.66;;;23.83;61.78
50364;BME280;36272;59.400;17.982;2023-08-12T13:31:21;101518.63;;;23.81;61.96
50364;BME280;36272;59.400;17.982;2023-08-12T13:36:22;101518.63;;;23.81;62.48
50364;BME280;36272;59.400;17.982;2023-08-12T13:41:24;101514.25;;;24.04;61.98
50364;BME280;36272;59.400;17.982;2023-08-12T13:46:26;101508.94;;;24.13;61.36
50364;BME280;36272;59.400;17.982;2023-08-12T13:51:27;101499.91;;;23.93;61.66
50364;BME280;36272;59.400;17.982;2023-08-12T13:56:29;101495.53;;;23.73;61.74
50364;BME280;36272;59.400;17.982;2023-08-12T14:01:31;101488.78;;;23.65;62.24
50364;BME280;36272;59.400;17.982;2023-08-12T14:06:32;101517.78;;;23.61;62.12
50364;BME280;36272;59.400;17.982;2023-08-12T14:11:34;101514.34;;;23.50;62.50
50364;BME280;36272;59.400;17.982;2023-08-12T14:16:36;101508.09;;;23.50;62.18
50364;BME280;36272;59.400;17.982;2023-08-12T14:21:38;101499.25;;;23.82;61.84
50364;BME280;36272;59.400;17.982;2023-08-12T14:26:39;101497.41;;;24.16;61.51
50364;BME280;36272;59.400;17.982;2023-08-12T14:31:41;101486.09;;;24.42;60.40
50364;BME280;36272;59.400;17.982;2023-08-12T14:36:43;101482.28;;;24.24;60.69
50364;BME280;36272;59.400;17.982;2023-08-12T14:41:44;101480.75;;;23.98;61.03
50364;BME280;36272;59.400;17.982;2023-08-12T14:46:46;101482.22;;;23.85;61.55
50364;BME280;36272;59.400;17.982;2023-08-12T14:51:48;101479.56;;;24.04;61.67
50364;BME280;36272;59.400;17.982;2023-08-12T14:56:49;101473.56;;;24.22;60.36
50364;BME280;36272;59.400;17.982;2023-08-12T15:01:51;101483.03;;;24.10;60.17
50364;BME280;36272;59.400;17.982;2023-08-12T15:06:52;101489.84;;;23.88;59.94
50364;BME280;36272;59.400;17.982;2023-08-12T15:11:54;101483.25;;;23.70;60.08
50364;BME280;36272;59.400;17.982;2023-08-12T15:16:56;101475.66;;;23.67;60.24
50364;BME280;36272;59.400;17.982;2023-08-12T15:21:57;101475.91;;;23.71;60.42
50364;BME280;36272;59.400;17.982;2023-08-12T15:26:59;101481.09;;;23.67;60.57
50364;BME280;36272;59.400;17.982;2023-08-12T15:32:00;101474.75;;;23.53;60.65
50364;BME280;36272;59.400;17.982;2023-08-12T15:37:02;101466.69;;;23.42;60.39
50364;BME280;36272;59.400;17.982;2023-08-12T15:42:05;101458.16;;;23.25;60.96
50364;BME280;36272;59.400;17.982;2023-08-12T15:47:07;101467.75;;;23.22;61.21
50364;BME280;36272;59.400;17.982;2023-08-12T15:52:09;101464.06;;;23.32;61.04
50364;BME280;36272;59.400;17.982;2023-08-12T15:57:10;101466.38;;;23.44;60.64
50364;BME280;36272;59.400;17.982;2023-08-12T16:02:12;101467.56;;;23.38;60.44
50364;BME280;36272;59.400;17.982;2023-08-12T16:07:13;101457.03;;;23.26;60.71
50364;BME280;36272;59.400;17.982;2023-08-12T16:12:15;101462.09;;;23.13;60.61
50364;BME280;36272;59.400;17.982;2023-08-12T16:17:20;101459.19;;;22.99;61.12
50364;BME280;36272;59.400;17.982;2023-08-12T16:22:21;101455.19;;;22.92;61.29
50364;BME280;36272;59.400;17.982;2023-08-12T16:27:23;101458.06;;;22.76;61.83
50364;BME280;36272;59.400;17.982;2023-08-12T16:32:25;101455.28;;;22.81;61.88
50364;BME280;36272;59.400;17.982;2023-08-12T16:37:26;101446.88;;;22.78;61.58
50364;BME280;36272;59.400;17.982;2023-08-12T16:42:28;101441.19;;;22.74;61.84
50364;BME280;36272;59.400;17.982;2023-08-12T16:47:29;101437.88;;;22.77;61.71
50364;BME280;36272;59.400;17.982;2023-08-12T16:52:31;101428.81;;;22.57;62.27
50364;BME280;36272;59.400;17.982;2023-08-12T16:57:33;101413.66;;;22.41;62.13
50364;BME280;36272;59.400;17.982;2023-08-12T17:02:35;101424.59;;;22.36;62.81
50364;BME280;36272;59.400;17.982;2023-08-12T17:07:36;101446.38;;;22.36;62.80
50364;BME280;36272;59.400;17.982;2023-08-12T17:12:38;101439.84;;;22.37;62.81
50364;BME280;36272;59.400;17.982;2023-08-12T17:17:39;101425.22;;;22.27;62.96
50364;BME280;36272;59.400;17.982;2023-08-12T17:22:42;101423.06;;;22.24;62.91
50364;BME280;36272;59.400;17.982;2023-08-12T17:27:43;101435.06;;;22.23;62.89
50364;BME280;36272;59.400;17.982;2023-08-12T17:32:45;101434.53;;;22.21;63.04
50364;BME280;36272;59.400;17.982;2023-08-12T17:37:47;101425.53;;;22.21;63.28
50364;BME280;36272;59.400;17.982;2023-08-12T17:42:48;101422.59;;;22.12;63.02
50364;BME280;36272;59.400;17.982;2023-08-12T17:47:58;101431.94;;;22.01;63.12
50364;BME280;36272;59.400;17.982;2023-08-12T17:53:00;101448.94;;;21.82;63.32
50364;BME280;36272;59.400;17.982;2023-08-12T17:58:01;101429.97;;;21.66;63.27
50364;BME280;36272;59.400;17.982;2023-08-12T18:03:03;101427.81;;;21.53;63.73
50364;BME280;36272;59.400;17.982;2023-08-12T18:08:05;101438.72;;;21.43;63.86
50364;BME280;36272;59.400;17.982;2023-08-12T18:13:06;101439.59;;;21.33;64.38
50364;BME280;36272;59.400;17.982;2023-08-12T18:18:08;101435.00;;;21.23;64.33
50364;BME280;36272;59.400;17.982;2023-08-12T18:23:10;101431.75;;;21.16;64.56
50364;BME280;36272;59.400;17.982;2023-08-12T18:28:11;101429.06;;;21.10;64.71
50364;BME280;36272;59.400;17.982;2023-08-12T18:33:13;101433.41;;;21.01;64.88
50364;BME280;36272;59.400;17.982;2023-08-12T18:38:14;101430.44;;;20.92;65.13
50364;BME280;36272;59.400;17.982;2023-08-12T18:43:16;101436.19;;;20.86;65.32
50364;BME280;36272;59.400;17.982;2023-08-12T18:48:18;101435.06;;;20.76;65.84
50364;BME280;36272;59.400;17.982;2023-08-12T18:53:19;101444.84;;;20.67;65.94
50364;BME280;36272;59.400;17.982;2023-08-12T18:58:21;101437.78;;;20.61;66.08
50364;BME280;36272;59.400;17.982;2023-08-12T19:03:23;101431.56;;;20.55;66.29
50364;BME280;36272;59.400;17.982;2023-08-12T19:08:24;101441.34;;;20.51;66.44
50364;BME280;36272;59.400;17.982;2023-08-12T19:13:26;101437.28;;;20.48;66.77
50364;BME280;36272;59.400;17.982;2023-08-12T19:18:28;101437.00;;;20.45;67.01
50364;BME280;36272;59.400;17.982;2023-08-12T19:23:30;101436.72;;;20.41;67.54
50364;BME280;36272;59.400;17.982;2023-08-12T19:28:32;101426.13;;;20.34;67.67
50364;BME280;36272;59.400;17.982;2023-08-12T19:33:33;101423.13;;;20.26;68.05
50364;BME280;36272;59.400;17.982;2023-08-12T19:38:35;101424.50;;;20.18;68.46
50364;BME280;36272;59.400;17.982;2023-08-12T19:43:37;101429.38;;;20.11;68.99
50364;BME280;36272;59.400;17.982;2023-08-12T19:48:38;101422.81;;;20.01;69.29
50364;BME280;36272;59.400;17.982;2023-08-12T19:53:40;101418.72;;;19.88;69.70
50364;BME280;36272;59.400;17.982;2023-08-12T19:58:41;101424.94;;;19.79;70.04
50364;BME280;36272;59.400;17.982;2023-08-12T20:03:43;101417.84;;;19.67;70.43
50364;BME280;36272;59.400;17.982;2023-08-12T20:08:45;101423.53;;;19.60;70.76
50364;BME280;36272;59.400;17.982;2023-08-12T20:13:47;101428.94;;;19.55;71.15
50364;BME280;36272;59.400;17.982;2023-08-12T20:18:49;101437.03;;;19.50;71.19
50364;BME280;36272;59.400;17.982;2023-08-12T20:23:50;101431.31;;;19.46;71.27
50364;BME280;36272;59.400;17.982;2023-08-12T20:28:52;101429.97;;;19.44;71.12
50364;BME280;36272;59.400;17.982;2023-08-12T20:33:53;101418.84;;;19.40;71.25
50364;BME280;36272;59.400;17.982;2023-08-12T20:38:58;101403.88;;;19.38;71.56
50364;BME280;36272;59.400;17.982;2023-08-12T20:43:59;101413.38;;;19.35;71.75
50364;BME280;36272;59.400;17.982;2023-08-12T20:49:01;101405.25;;;19.35;71.53
50364;BME280;36272;59.400;17.982;2023-08-12T20:54:03;101403.88;;;19.32;71.72
50364;BME280;36272;59.400;17.982;2023-08-12T20:59:05;101410.38;;;19.31;72.14
50364;BME280;36272;59.400;17.982;2023-08-12T21:04:07;101387.84;;;19.26;72.16
50364;BME280;36272;59.400;17.982;2023-08-12T21:09:08;101402.72;;;19.23;72.22
50364;BME280;36272;59.400;17.982;2023-08-12T21:14:10;101387.53;;;19.17;72.32
50364;BME280;36272;59.400;17.982;2023-08-12T21:19:12;101395.09;;;19.10;72.63
50364;BME280;36272;59.400;17.982;2023-08-12T21:24:17;101393.69;;;19.02;72.97
50364;BME280;36272;59.400;17.982;2023-08-12T21:29:20;101384.13;;;18.94;73.36
50364;BME280;36272;59.400;17.982;2023-08-12T21:34:22;101393.59;;;18.86;73.47
50364;BME280;36272;59.400;17.982;2023-08-12T21:39:24;101394.09;;;18.83;73.67
50364;BME280;36272;59.400;17.982;2023-08-12T21:44:26;101379.16;;;18.76;73.94
50364;BME280;36272;59.400;17.982;2023-08-12T21:49:27;101377.50;;;18.69;74.44
50364;BME280;36272;59.400;17.982;2023-08-12T21:54:29;101373.09;;;18.63;74.74
50364;BME280;36272;59.400;17.982;2023-08-12T21:59:31;101377.94;;;18.56;74.99
50364;BME280;36272;59.400;17.982;2023-08-12T22:04:34;101354.56;;;18.45;75.38
50364;BME280;36272;59.400;17.982;2023-08-12T22:09:35;101372.66;;;18.39;75.50
50364;BME280;36272;59.400;17.982;2023-08-12T22:14:38;101350.69;;;18.35;75.68
50364;BME280;36272;59.400;17.982;2023-08-12T22:19:40;101356.34;;;18.28;75.99
50364;BME280;36272;59.400;17.982;2023-08-12T22:24:42;101346.28;;;18.24;76.18
50364;BME280;36272;59.400;17.982;2023-08-12T22:29:44;101348.16;;;18.23;76.31
50364;BME280;36272;59.400;17.982;2023-08-12T22:34:45;101340.31;;;18.22;76.36
50364;BME280;36272;59.400;17.982;2023-08-12T22:39:47;101334.91;;;18.22;76.51
50364;BME280;36272;59.400;17.982;2023-08-12T22:44:48;101342.47;;;18.20;77.04
50364;BME280;36272;59.400;17.982;2023-08-12T22:49:50;101323.19;;;18.16;77.04
50364;BME280;36272;59.400;17.982;2023-08-12T22:54:52;101322.88;;;18.07;77.79
50364;BME280;36272;59.400;17.982;2023-08-12T22:59:53;101320.13;;;18.02;77.82
50364;BME280;36272;59.400;17.982;2023-08-12T23:04:55;101308.66;;;17.95;78.50
50364;BME280;36272;59.400;17.982;2023-08-12T23:09:59;101308.06;;;17.88;78.90
50364;BME280;36272;59.400;17.982;2023-08-12T23:15:00;101304.44;;;17.77;79.88
50364;BME280;36272;59.400;17.982;2023-08-12T23:20:04;101284.38;;;17.73;79.99
50364;BME280;36272;59.400;17.982;2023-08-12T23:25:07;101291.13;;;17.70;80.37
50364;BME280;36272;59.400;17.982;2023-08-12T23:30:09;101291.63;;;17.67;80.59
50364;BME280;36272;59.400;17.982;2023-08-12T23:35:15;101279.69;;;17.63;80.93
50364;BME280;36272;59.400;17.982;2023-08-12T23:40:20;101268.88;;;17.63;80.83
50364;BME280;36272;59.400;17.982;2023-08-12T23:45:21;101273.50;;;17.62;81.19
50364;BME280;36272;59.400;17.982;2023-08-12T23:50:23;101273.22;;;17.64;81.03
50364;BME280;36272;59.400;17.982;2023-08-12T23:55:25;101270.28;;;17.65;81.26
